createdAt,value
2018-10-02T00:01:13.445Z,101425.47
2018-10-02T00:03:45.117Z,101430.27
2018-10-02T00:06:16.845Z,101425.41
2018-10-02T00:08:48.888Z,101420.97
2018-10-02T00:11:25.147Z,101422.20
2018-10-02T00:14:01.646Z,101429.92
2018-10-02T00:16:33.067Z,101429.56
2018-10-02T00:19:04.944Z,101416.02
2018-10-02T00:21:36.476Z,101417.78
2018-10-02T00:24:08.178Z,101420.39
2018-10-02T00:26:40.352Z,101413.77
2018-10-02T00:29:12.303Z,101413.34
2018-10-02T00:31:43.924Z,101406.59
2018-10-02T00:34:15.360Z,101412.27
2018-10-02T00:36:47.426Z,101407.55
2018-10-02T00:39:19.238Z,101403.13
2018-10-02T00:41:50.939Z,101395.70
2018-10-02T00:44:24.210Z,101393.50
2018-10-02T00:46:56.890Z,101410.60
2018-10-02T00:49:28.900Z,101403.62
2018-10-02T00:52:00.770Z,101395.38
2018-10-02T00:54:32.657Z,101385.28
2018-10-02T00:57:04.223Z,101367.98
2018-10-02T00:59:36.052Z,101375.23
2018-10-02T01:02:08.260Z,101383.03
2018-10-02T01:04:40.403Z,101383.31
2018-10-02T01:07:11.421Z,101383.90
2018-10-02T01:09:43.493Z,101381.16
2018-10-02T01:12:16.215Z,101375.87
2018-10-02T01:14:48.238Z,101362.09
2018-10-02T01:17:28.986Z,101352.74
2018-10-02T01:20:01.683Z,101348.03
2018-10-02T01:22:33.442Z,101345.49
2018-10-02T01:25:05.337Z,101333.08
2018-10-02T01:27:36.988Z,101343.69
2018-10-02T01:30:09.017Z,101337.03
2018-10-02T01:32:41.062Z,101335.52
2018-10-02T01:35:12.647Z,101328.37
2018-10-02T01:37:44.334Z,101330.39
2018-10-02T01:43:20.976Z,101329.49
2018-10-02T01:45:59.405Z,101338.40
2018-10-02T01:48:30.772Z,101338.48
2018-10-02T01:51:02.336Z,101331.27
2018-10-02T01:53:34.675Z,101334.97
2018-10-02T01:56:06.158Z,101326.49
2018-10-02T01:58:37.604Z,101317.74
2018-10-02T02:01:09.258Z,101319.99
2018-10-02T02:03:41.763Z,101305.47
2018-10-02T02:06:13.550Z,101300.66
2018-10-02T02:08:44.921Z,101298.63
2018-10-02T02:11:16.877Z,101299.77
2018-10-02T02:13:48.744Z,101291.16
2018-10-02T02:16:20.069Z,101288.19
2018-10-02T02:18:51.879Z,101291.17
2018-10-02T02:21:24.269Z,101289.22
2018-10-02T02:23:56.397Z,101286.25
2018-10-02T02:26:28.370Z,101277.11
2018-10-02T02:29:00.204Z,101279.59
2018-10-02T02:31:31.677Z,101271.69
2018-10-02T02:34:03.953Z,101271.59
2018-10-02T02:36:35.529Z,101277.59
2018-10-02T02:39:07.810Z,101272.97
2018-10-02T02:41:39.514Z,101265.25
2018-10-02T02:44:10.758Z,101267.02
2018-10-02T02:46:42.095Z,101268.91
2018-10-02T02:49:18.023Z,101264.14
2018-10-02T02:51:49.694Z,101262.92
2018-10-02T02:54:21.021Z,101260.97
2018-10-02T02:56:51.760Z,101261.02
2018-10-02T02:59:23.790Z,101257.44
2018-10-02T03:01:55.427Z,101256.97
2018-10-02T03:04:26.274Z,101259.48
2018-10-02T03:06:58.442Z,101265.96
2018-10-02T03:09:29.601Z,101259.55
2018-10-02T03:12:00.541Z,101251.29
2018-10-02T03:14:32.694Z,101250.86
2018-10-02T03:17:04.545Z,101257.75
2018-10-02T03:19:35.891Z,101249.00
2018-10-02T03:22:06.663Z,101241.64
2018-10-02T03:24:38.293Z,101236.03
2018-10-02T03:27:09.832Z,101232.77
2018-10-02T03:29:41.582Z,101217.30
2018-10-02T03:32:12.868Z,101201.55
2018-10-02T03:34:44.692Z,101197.58
2018-10-02T03:37:16.479Z,101207.10
2018-10-02T03:39:48.709Z,101197.14
2018-10-02T03:45:09.041Z,101199.94
2018-10-02T03:47:46.994Z,101216.61
2018-10-02T03:50:21.645Z,101209.02
2018-10-02T03:52:54.897Z,101205.91
2018-10-02T03:55:28.483Z,101212.27
2018-10-02T03:58:02.955Z,101209.72
2018-10-02T04:00:37.216Z,101212.70
2018-10-02T04:03:12.663Z,101205.48
2018-10-02T04:05:49.040Z,101196.09
2018-10-02T04:08:30.328Z,101199.30
2018-10-02T04:11:04.360Z,101196.09
2018-10-02T04:13:39.563Z,101192.08
2018-10-02T04:16:10.792Z,101192.37
2018-10-02T04:18:42.758Z,101195.41
2018-10-02T04:21:15.952Z,101217.18
2018-10-02T04:23:47.755Z,101214.41
2018-10-02T04:26:19.293Z,101208.38
2018-10-02T04:28:51.656Z,101206.94
2018-10-02T04:31:23.589Z,101200.95
2018-10-02T04:33:55.190Z,101189.73
2018-10-02T04:36:26.734Z,101187.22
2018-10-02T04:38:58.149Z,101182.56
2018-10-02T04:41:29.297Z,101181.94
2018-10-02T04:44:00.491Z,101189.84
2018-10-02T04:46:32.352Z,101180.39
2018-10-02T04:49:05.097Z,101172.66
2018-10-02T04:51:36.567Z,101175.75
2018-10-02T04:54:07.269Z,101173.48
2018-10-02T04:56:39.366Z,101170.25
2018-10-02T04:59:10.332Z,101167.75
2018-10-02T05:01:41.903Z,101156.84
2018-10-02T05:04:15.965Z,101153.33
2018-10-02T05:06:50.496Z,101153.11
2018-10-02T05:09:23.354Z,101146.89
2018-10-02T05:11:54.337Z,101137.91
2018-10-02T05:14:25.536Z,101135.61
2018-10-02T05:16:58.357Z,101134.53
2018-10-02T05:19:30.186Z,101126.63
2018-10-02T05:22:01.634Z,101121.00
2018-10-02T05:24:33.113Z,101115.71
2018-10-02T05:27:05.782Z,101120.28
2018-10-02T05:29:37.918Z,101106.12
2018-10-02T05:32:09.590Z,101112.13
2018-10-02T05:34:41.219Z,101112.94
2018-10-02T05:37:12.274Z,101107.71
2018-10-02T05:39:42.995Z,101106.69
2018-10-02T05:42:18.357Z,101103.28
2018-10-02T05:44:52.961Z,101100.98
2018-10-02T05:47:30.275Z,101097.28
2018-10-02T05:50:12.726Z,101097.84
2018-10-02T05:52:46.817Z,101085.45
2018-10-02T05:55:19.235Z,101094.91
2018-10-02T05:57:50.695Z,101081.14
2018-10-02T06:00:22.266Z,101086.48
2018-10-02T06:03:00.687Z,101081.88
2018-10-02T06:05:32.765Z,101086.91
2018-10-02T06:08:04.113Z,101072.64
2018-10-02T06:10:36.907Z,101064.02
2018-10-02T06:13:08.601Z,101058.06
2018-10-02T06:15:54.690Z,101064.16
2018-10-02T06:21:17.407Z,101066.57
2018-10-02T06:23:50.450Z,101047.02
2018-10-02T06:26:21.423Z,101047.08
2018-10-02T06:28:52.959Z,101051.70
2018-10-02T06:31:25.916Z,101048.24
2018-10-02T06:33:56.696Z,101049.16
2018-10-02T06:36:30.303Z,101032.77
2018-10-02T06:39:22.341Z,101031.36
2018-10-02T06:41:54.003Z,101016.50
2018-10-02T06:44:26.300Z,101012.06
2018-10-02T06:46:59.510Z,101016.98
2018-10-02T06:49:30.815Z,101009.81
2018-10-02T06:52:05.849Z,101018.12
2018-10-02T06:54:40.664Z,101011.24
2018-10-02T06:57:11.874Z,101004.56
2018-10-02T06:59:48.278Z,101005.03
2018-10-02T07:02:20.177Z,101011.13
2018-10-02T07:04:53.100Z,101011.98
2018-10-02T07:07:25.146Z,101010.50
2018-10-02T07:09:56.283Z,101000.25
2018-10-02T07:12:27.099Z,100996.16
2018-10-02T07:15:12.891Z,100990.13
2018-10-02T07:17:44.134Z,100986.80
2018-10-02T07:20:14.791Z,100975.25
2018-10-02T07:22:57.414Z,100979.78
2018-10-02T07:28:26.917Z,100969.48
2018-10-02T07:31:01.299Z,100967.37
2018-10-02T07:33:33.282Z,100963.06
2018-10-02T07:36:08.636Z,100956.48
2018-10-02T07:38:46.713Z,100950.41
2018-10-02T07:41:19.730Z,100947.09
2018-10-02T07:43:57.912Z,100933.70
2018-10-02T07:46:33.264Z,100925.88
2018-10-02T07:49:05.371Z,100923.91
2018-10-02T07:58:46.504Z,100897.14
2018-10-02T08:01:18.108Z,100918.78
2018-10-02T08:17:41.466Z,100883.76
2018-10-02T08:20:13.612Z,100864.53
2018-10-02T08:22:44.095Z,100886.50
2018-10-02T08:25:14.710Z,100863.72
2018-10-02T08:27:44.902Z,100861.66
2018-10-02T08:30:14.989Z,100863.72
2018-10-02T08:32:46.118Z,100854.44
2018-10-02T08:35:17.267Z,100841.97
2018-10-02T08:37:48.341Z,100831.03
2018-10-02T08:40:20.101Z,100828.48
2018-10-02T08:42:51.251Z,100803.81
2018-10-02T08:45:23.150Z,100803.81
2018-10-02T08:47:55.433Z,100787.66
2018-10-02T08:50:27.828Z,100786.33
2018-10-02T08:52:58.237Z,100776.32
2018-10-02T08:55:29.534Z,100781.25
2018-10-02T08:57:59.526Z,100775.91
2018-10-02T09:00:33.260Z,100769.10
2018-10-02T09:03:04.598Z,100763.59
2018-10-02T09:05:34.721Z,100755.19
2018-10-02T09:08:05.971Z,100735.24
2018-10-02T09:11:05.486Z,100725.66
2018-10-02T09:13:36.590Z,100722.44
2018-10-02T09:16:07.973Z,100719.81
2018-10-02T09:18:38.187Z,100719.81
2018-10-02T09:21:18.296Z,100709.69
2018-10-02T09:23:51.127Z,100706.28
2018-10-02T09:26:22.782Z,100702.98
2018-10-02T09:28:55.875Z,100696.67
2018-10-02T09:31:31.113Z,100712.98
2018-10-02T09:34:06.858Z,100691.13
2018-10-02T09:36:42.879Z,100691.60
2018-10-02T09:39:19.778Z,100684.24
2018-10-02T09:42:07.143Z,100672.11
2018-10-02T09:44:37.549Z,100671.30
2018-10-02T09:47:09.204Z,100666.16
2018-10-02T09:49:42.263Z,100653.20
2018-10-02T09:52:13.397Z,100652.55
2018-10-02T09:54:44.285Z,100644.76
2018-10-02T09:57:17.209Z,100640.33
2018-10-02T09:59:49.095Z,100638.59
2018-10-02T10:02:24.658Z,100618.15
2018-10-02T10:04:55.562Z,100610.25
2018-10-02T10:07:26.078Z,100607.20
2018-10-02T10:09:58.072Z,100622.96
2018-10-02T10:12:28.275Z,100619.28
2018-10-02T10:14:58.903Z,100621.09
2018-10-02T10:17:33.152Z,100609.86
2018-10-02T10:20:04.672Z,100596.16
2018-10-02T10:22:34.892Z,100588.14
2018-10-02T10:25:06.750Z,100602.05
2018-10-02T10:27:36.865Z,100603.31
2018-10-02T10:30:07.674Z,100592.00
2018-10-02T10:32:40.278Z,100592.33
2018-10-02T10:35:10.724Z,100586.13
2018-10-02T10:37:41.869Z,100586.39
2018-10-02T10:40:12.383Z,100575.30
2018-10-02T10:42:42.349Z,100576.44
2018-10-02T10:45:15.594Z,100574.29
2018-10-02T10:47:47.343Z,100578.48
2018-10-02T10:50:17.807Z,100568.02
2018-10-02T10:52:48.964Z,100542.80
2018-10-02T10:55:26.787Z,100548.29
2018-10-02T10:57:57.575Z,100542.46
2018-10-02T11:00:29.638Z,100555.11
2018-10-02T11:03:01.496Z,100557.34
2018-10-02T11:05:32.796Z,100547.46
2018-10-02T11:08:03.175Z,100545.06
2018-10-02T11:10:34.259Z,100543.13
2018-10-02T11:13:04.519Z,100544.38
2018-10-02T11:15:36.681Z,100531.94
2018-10-02T11:18:11.719Z,100530.41
2018-10-02T11:20:44.806Z,100529.66
2018-10-02T11:23:15.026Z,100521.75
2018-10-02T11:25:49.560Z,100517.11
2018-10-02T11:28:20.603Z,100519.00
2018-10-02T11:30:58.915Z,100501.50
2018-10-02T11:33:33.992Z,100518.33
2018-10-02T11:36:04.306Z,100498.75
2018-10-02T11:38:35.286Z,100509.36
2018-10-02T11:41:05.397Z,100506.70
2018-10-02T11:43:36.925Z,100506.02
2018-10-02T11:46:10.470Z,100503.10
2018-10-02T11:48:42.848Z,100484.70
2018-10-02T11:51:17.755Z,100482.47
2018-10-02T11:53:48.098Z,100486.32
2018-10-02T11:56:20.357Z,100493.89
2018-10-02T11:58:52.934Z,100481.30
2018-10-02T12:01:24.226Z,100469.09
2018-10-02T12:03:54.421Z,100486.48
2018-10-02T12:06:24.726Z,100481.09
2018-10-02T12:08:56.696Z,100484.78
2018-10-02T12:11:27.724Z,100488.92
2018-10-02T12:13:58.099Z,100497.87
2018-10-02T12:16:29.428Z,100505.78
2018-10-02T12:19:01.005Z,100506.16
2018-10-02T12:26:39.902Z,100480.31
2018-10-02T12:29:10.469Z,100482.83
2018-10-02T12:31:41.329Z,100479.89
2018-10-02T12:34:11.326Z,100478.48
2018-10-02T12:36:44.099Z,100476.17
2018-10-02T12:39:14.184Z,100475.06
2018-10-02T12:41:49.863Z,100472.88
2018-10-02T12:44:21.097Z,100460.94
2018-10-02T12:46:51.487Z,100458.57
2018-10-02T12:49:24.491Z,100449.56
2018-10-02T12:51:58.180Z,100445.52
2018-10-02T12:54:28.755Z,100446.59
2018-10-02T12:56:59.385Z,100444.31
2018-10-02T12:59:30.704Z,100453.52
2018-10-02T13:02:04.950Z,100436.63
2018-10-02T13:05:10.127Z,100435.56
2018-10-02T13:07:41.269Z,100440.73
2018-10-02T13:10:11.642Z,100433.87
2018-10-02T13:12:44.257Z,100435.20
2018-10-02T13:15:19.718Z,100440.54
2018-10-02T13:17:52.777Z,100442.78
2018-10-02T13:20:24.300Z,100448.09
2018-10-02T13:23:00.934Z,100455.73
2018-10-02T13:25:35.162Z,100446.05
2018-10-02T13:28:06.920Z,100447.09
2018-10-02T13:30:41.976Z,100448.73
2018-10-02T13:33:13.875Z,100454.88
2018-10-02T13:35:47.079Z,100454.49
2018-10-02T13:38:18.116Z,100463.23
2018-10-02T13:40:51.123Z,100463.13
2018-10-02T13:43:23.141Z,100470.82
2018-10-02T13:45:54.293Z,100482.34
2018-10-02T13:48:25.631Z,100480.45
2018-10-02T13:50:56.518Z,100492.98
2018-10-02T13:53:26.710Z,100489.74
2018-10-02T13:55:56.725Z,100480.98
2018-10-02T13:58:28.110Z,100484.56
2018-10-02T14:00:58.356Z,100486.36
2018-10-02T14:03:28.637Z,100494.44
2018-10-02T14:05:59.555Z,100496.77
2018-10-02T14:08:30.113Z,100485.52
2018-10-02T14:11:01.173Z,100493.38
2018-10-02T14:13:32.824Z,100487.41
2018-10-02T14:21:35.059Z,100486.09
2018-10-02T14:24:05.451Z,100478.78
2018-10-02T14:26:37.247Z,100482.52
2018-10-02T14:29:07.833Z,100487.73
2018-10-02T14:31:38.560Z,100483.32
2018-10-02T14:34:10.715Z,100495.92
2018-10-02T14:39:26.738Z,100499.64
2018-10-02T14:41:57.084Z,100500.80
2018-10-02T14:44:32.929Z,100496.95
2018-10-02T14:47:03.783Z,100495.41
2018-10-02T14:49:34.853Z,100510.47
2018-10-02T14:52:11.290Z,100519.63
2018-10-02T14:54:41.563Z,100506.64
2018-10-02T14:57:12.732Z,100518.24
2018-10-02T14:59:43.663Z,100519.29
2018-10-02T15:02:14.293Z,100518.23
2018-10-02T15:04:48.688Z,100519.09
2018-10-02T15:07:20.582Z,100529.55
2018-10-02T15:09:51.819Z,100526.95
2018-10-02T15:12:22.852Z,100518.88
2018-10-02T15:14:54.410Z,100518.19
2018-10-02T15:17:25.407Z,100521.67
2018-10-02T15:19:55.632Z,100510.27
2018-10-02T15:22:26.043Z,100527.00
2018-10-02T15:24:56.746Z,100526.41
2018-10-02T15:27:45.501Z,100520.92
2018-10-02T15:30:16.131Z,100528.30
2018-10-02T15:32:47.590Z,100519.53
2018-10-02T15:35:21.986Z,100523.06
2018-10-02T15:37:52.487Z,100524.41
2018-10-02T15:40:24.812Z,100528.59
2018-10-02T15:42:56.134Z,100528.74
2018-10-02T15:48:12.479Z,100532.02
2018-10-02T15:50:43.635Z,100548.44
2018-10-02T15:53:18.227Z,100540.74
2018-10-02T15:58:44.696Z,100557.08
2018-10-02T16:01:18.361Z,100559.74
2018-10-02T16:03:49.344Z,100560.06
2018-10-02T16:06:21.484Z,100567.22
2018-10-02T16:08:56.974Z,100562.09
2018-10-02T16:11:28.534Z,100569.32
2018-10-02T16:14:10.175Z,100561.48
2018-10-02T16:16:42.443Z,100568.62
2018-10-02T16:19:15.277Z,100565.75
2018-10-02T16:21:49.757Z,100555.37
2018-10-02T16:24:23.969Z,100564.28
2018-10-02T16:26:56.812Z,100556.59
2018-10-02T16:29:28.400Z,100554.58
2018-10-02T16:32:09.238Z,100564.66
2018-10-02T16:34:49.282Z,100555.14
2018-10-02T16:37:10.940Z,100564.86
2018-10-02T16:39:49.649Z,100565.00
2018-10-02T16:42:23.059Z,100572.25
2018-10-02T16:44:56.152Z,100587.41
2018-10-02T16:47:43.314Z,100588.84
2018-10-02T16:53:00.014Z,100594.08
2018-10-02T16:58:19.707Z,100596.17
2018-10-02T17:01:00.780Z,100606.69
2018-10-02T17:03:34.702Z,100592.06
2018-10-02T17:06:09.165Z,100612.42
2018-10-02T17:08:52.148Z,100607.63
2018-10-02T17:11:36.845Z,100627.59
2018-10-02T17:14:18.441Z,100627.13
2018-10-02T17:16:50.777Z,100623.11
2018-10-02T17:19:22.803Z,100625.65
2018-10-02T17:21:54.198Z,100630.08
2018-10-02T17:24:26.561Z,100622.97
2018-10-02T17:26:57.152Z,100632.05
2018-10-02T17:29:27.930Z,100620.83
2018-10-02T17:31:58.933Z,100616.89
2018-10-02T17:34:29.603Z,100622.97
2018-10-02T17:36:59.582Z,100621.26
2018-10-02T17:39:29.656Z,100611.47
2018-10-02T17:41:59.993Z,100614.55
2018-10-02T17:44:30.174Z,100610.73
2018-10-02T17:47:01.411Z,100623.42
2018-10-02T17:49:32.116Z,100612.64
2018-10-02T17:52:04.730Z,100604.42
2018-10-02T17:54:35.534Z,100613.89
2018-10-02T17:57:06.282Z,100596.55
2018-10-02T17:59:36.804Z,100600.88
2018-10-02T18:02:07.935Z,100605.84
2018-10-02T18:04:38.471Z,100613.89
2018-10-02T18:07:09.412Z,100604.14
2018-10-02T18:09:41.948Z,100608.62
2018-10-02T18:12:12.978Z,100615.38
2018-10-02T18:14:43.826Z,100612.41
2018-10-02T18:17:16.142Z,100618.00
2018-10-02T18:19:46.080Z,100624.80
2018-10-02T18:22:16.260Z,100634.02
2018-10-02T18:25:11.085Z,100626.14
2018-10-02T18:27:44.979Z,100640.87
2018-10-02T18:30:16.948Z,100635.19
2018-10-02T18:32:54.259Z,100639.69
2018-10-02T18:35:27.688Z,100632.02
2018-10-02T18:37:57.828Z,100625.10
2018-10-02T18:40:28.088Z,100620.77
2018-10-02T18:42:58.224Z,100632.11
2018-10-02T18:45:28.407Z,100616.89
2018-10-02T18:47:59.500Z,100620.83
2018-10-02T18:50:30.283Z,100635.81
2018-10-02T18:53:00.958Z,100637.77
2018-10-02T18:55:31.585Z,100635.03
2018-10-02T18:58:02.334Z,100635.67
2018-10-02T19:00:33.009Z,100644.64
2018-10-02T19:03:04.828Z,100644.72
2018-10-02T19:05:35.848Z,100647.11
2018-10-02T19:08:07.711Z,100647.73
2018-10-02T19:10:40.188Z,100634.48
2018-10-02T19:13:11.194Z,100630.63
2018-10-02T19:15:46.464Z,100632.19
2018-10-02T19:18:16.718Z,100638.48
2018-10-02T19:20:51.721Z,100635.89
2018-10-02T19:23:22.525Z,100631.62
2018-10-02T19:25:58.054Z,100642.27
2018-10-02T19:28:32.086Z,100634.31
2018-10-02T19:31:07.658Z,100632.89
2018-10-02T19:33:39.678Z,100651.25
2018-10-02T19:38:51.374Z,100646.45
2018-10-02T19:41:22.439Z,100636.19
2018-10-02T19:43:54.179Z,100648.25
2018-10-02T19:46:29.396Z,100648.16
2018-10-02T19:48:59.770Z,100654.25
2018-10-02T19:51:34.918Z,100657.01
2018-10-02T19:54:06.935Z,100659.28
2018-10-02T19:56:37.135Z,100660.47
2018-10-02T19:59:09.111Z,100661.77
2018-10-02T20:01:40.635Z,100646.26
2018-10-02T20:04:11.860Z,100656.57
2018-10-02T20:06:42.218Z,100649.63
2018-10-02T20:09:13.232Z,100649.09
2018-10-02T20:11:44.282Z,100647.56
2018-10-02T20:14:16.297Z,100659.08
2018-10-02T20:16:50.234Z,100671.71
2018-10-02T20:19:20.455Z,100663.11
2018-10-02T20:21:50.920Z,100663.44
2018-10-02T20:24:21.109Z,100658.31
2018-10-02T20:26:52.004Z,100667.89
2018-10-02T20:29:21.961Z,100665.98
2018-10-02T20:31:53.923Z,100655.07
2018-10-02T20:34:23.973Z,100664.85
2018-10-02T20:36:54.081Z,100677.72
2018-10-02T20:39:24.843Z,100662.02
2018-10-02T20:41:54.745Z,100659.00
2018-10-02T20:44:24.933Z,100639.92
2018-10-02T20:46:55.045Z,100645.60
2018-10-02T20:49:26.054Z,100646.91
2018-10-02T20:51:57.061Z,100637.00
2018-10-02T20:54:28.148Z,100657.86
2018-10-02T20:56:58.708Z,100656.68
2018-10-02T20:59:29.844Z,100653.67
2018-10-02T21:02:00.173Z,100667.89
2018-10-02T21:04:31.965Z,100664.84
2018-10-02T21:07:02.438Z,100675.33
2018-10-02T21:09:33.838Z,100676.75
2018-10-02T21:12:04.019Z,100657.75
2018-10-02T21:14:34.656Z,100657.66
2018-10-02T21:17:04.888Z,100653.56
2018-10-02T21:19:34.916Z,100642.53
2018-10-02T21:22:05.144Z,100644.14
2018-10-02T21:24:35.489Z,100638.21
2018-10-02T21:27:06.189Z,100643.45
2018-10-02T21:29:36.559Z,100650.19
2018-10-02T21:32:08.194Z,100649.56
2018-10-02T21:34:39.167Z,100648.32
2018-10-02T21:37:09.667Z,100646.13
2018-10-02T21:39:40.668Z,100652.18
2018-10-02T21:42:10.911Z,100649.42
2018-10-02T21:44:41.843Z,100658.03
2018-10-02T21:47:12.045Z,100656.77
2018-10-02T21:49:41.983Z,100644.59
2018-10-02T21:52:12.780Z,100653.24
2018-10-02T21:54:43.126Z,100654.21
2018-10-02T21:57:14.018Z,100652.95
2018-10-02T21:59:44.571Z,100657.83
2018-10-02T22:02:14.692Z,100658.07
2018-10-02T22:04:44.933Z,100662.25
2018-10-02T22:07:14.902Z,100656.66
2018-10-02T22:09:44.809Z,100657.55
2018-10-02T22:12:15.552Z,100657.95
2018-10-02T22:14:45.865Z,100645.89
2018-10-02T22:17:16.214Z,100641.55
2018-10-02T22:19:46.654Z,100647.80
2018-10-02T22:22:17.181Z,100638.62
2018-10-02T22:24:47.674Z,100649.02
2018-10-02T22:27:18.015Z,100642.80
2018-10-02T22:29:48.189Z,100643.66
2018-10-02T22:32:18.096Z,100647.92
2018-10-02T22:34:48.357Z,100651.25
2018-10-02T22:37:18.592Z,100647.23
2018-10-02T22:39:49.800Z,100636.67
2018-10-02T22:42:19.754Z,100643.69
2018-10-02T22:44:50.019Z,100648.33
2018-10-02T22:49:38.432Z,100643.85
2018-10-02T22:52:08.619Z,100646.21
2018-10-02T22:54:39.042Z,100652.51
2018-10-02T22:57:08.992Z,100649.75
2018-10-02T22:59:39.050Z,100652.19
2018-10-02T23:02:09.312Z,100642.16
2018-10-02T23:04:40.207Z,100646.22
2018-10-02T23:07:10.710Z,100650.23
2018-10-02T23:09:41.009Z,100647.27
2018-10-02T23:12:11.259Z,100653.69
2018-10-02T23:14:41.822Z,100648.84
2018-10-02T23:17:12.304Z,100643.61
2018-10-02T23:19:43.655Z,100647.59
2018-10-02T23:22:14.392Z,100655.62
2018-10-02T23:24:44.435Z,100649.11
2018-10-02T23:27:15.527Z,100645.58
2018-10-02T23:29:46.271Z,100650.70
2018-10-02T23:32:17.313Z,100645.34
2018-10-02T23:34:47.528Z,100649.84
2018-10-02T23:37:17.987Z,100647.34
2018-10-02T23:39:49.109Z,100649.44
2018-10-02T23:42:19.848Z,100642.14
2018-10-02T23:44:50.377Z,100656.22
2018-10-02T23:47:20.783Z,100654.34
2018-10-02T23:49:51.139Z,100665.76
2018-10-02T23:52:21.376Z,100664.34
2018-10-02T23:54:53.321Z,100674.27
2018-10-02T23:57:23.781Z,100669.42
2018-10-02T23:59:54.425Z,100670.66
